Time;durP1;ratioP1;P1;durP2;ratioP2;P2;SDS_P1;SDS_P2;PMS_P1;PMS_P2;Temp;Humidity;BMP_temperature;BMP_pressure;BME280_temperature;BME280_humidity;BME280_pressure;Samples;Min_cycle;Max_cycle;Signal;HPM_P1;HPM_P2
2022/06/23 00:00:37;;;;;;;4.27;2.53;;;21.30;55.20;;;;;;5033787;28;20443;-81
2022/06/23 00:03:05;;;;;;;4.77;2.50;;;21.30;54.80;;;;;;5026565;28;20439;-80
2022/06/23 00:05:37;;;;;;;4.33;2.50;;;21.20;55.10;;;;;;5032174;28;20439;-81
2022/06/23 00:08:07;;;;;;;5.70;2.00;;;21.20;55.20;;;;;;5027990;28;20501;-81
2022/06/23 00:10:38;;;;;;;4.23;2.20;;;21.20;55.50;;;;;;5030872;28;20436;-82
2022/06/23 00:13:15;;;;;;;3.30;2.73;;;21.20;55.90;;;;;;5030827;28;20430;-81
2022/06/23 00:15:43;;;;;;;5.70;2.47;;;21.10;56.30;;;;;;5029278;28;20481;-81
2022/06/23 00:18:24;;;;;;;4.53;2.50;;;21.10;56.00;;;;;;5026811;28;20808;-81
2022/06/23 00:20:54;;;;;;;7.03;2.67;;;21.00;56.00;;;;;;5026608;28;20520;-81
2022/06/23 00:23:33;;;;;;;7.93;2.67;;;21.00;56.10;;;;;;5030609;28;20456;-81
2022/06/23 00:26:03;;;;;;;7.33;3.20;;;21.00;55.80;;;;;;5027697;28;20454;-82
2022/06/23 00:28:41;;;;;;;3.47;3.17;;;20.90;56.70;;;;;;5032689;28;20528;-80
2022/06/23 00:31:26;;;;;;;2.60;2.40;;;20.90;57.10;;;;;;5030306;28;20457;-82
2022/06/23 00:33:52;;;;;;;2.43;1.90;;;20.90;57.10;;;;;;5031342;28;20435;-82
2022/06/23 00:36:33;;;;;;;3.20;2.53;;;20.90;56.90;;;;;;5032390;28;20439;-81
2022/06/23 00:38:59;;;;;;;2.87;1.90;;;20.90;56.40;;;;;;5029270;28;20452;-83
2022/06/23 00:41:31;;;;;;;5.37;2.53;;;20.90;56.50;;;;;;5028420;28;20440;-82
2022/06/23 00:44:13;;;;;;;6.60;2.40;;;20.90;63.50;;;;;;5027163;28;20188;-81
2022/06/23 00:46:47;;;;;;;4.60;2.37;;;20.90;55.90;;;;;;5027634;28;20523;-82
2022/06/23 00:49:13;;;;;;;4.67;2.53;;;20.90;56.50;;;;;;5027406;28;20447;-82
2022/06/23 00:51:49;;;;;;;2.50;2.10;;;20.80;56.20;;;;;;5033155;28;20460;-81
2022/06/23 00:54:23;;;;;;;3.50;2.00;;;20.80;56.80;;;;;;5031044;28;20661;-82
2022/06/23 00:57:15;;;;;;;2.70;1.77;;;20.80;74.20;;;;;;5030380;28;20435;-81
2022/06/23 00:59:57;;;;;;;6.10;2.87;;;20.80;58.40;;;;;;5028843;28;20416;-81
2022/06/23 01:02:38;;;;;;;3.13;2.50;;;20.80;58.40;;;;;;5025475;28;20427;-81
2022/06/23 01:05:15;;;;;;;4.57;2.93;;;20.70;58.80;;;;;;5029619;28;20430;-81
2022/06/23 01:08:03;;;;;;;3.07;2.37;;;20.70;59.10;;;;;;5021716;28;20470;-80
2022/06/23 01:10:35;;;;;;;3.13;2.23;;;20.60;58.80;;;;;;5026672;28;20426;-81
2022/06/23 01:13:22;;;;;;;6.50;2.63;;;20.50;58.80;;;;;;5028934;28;20450;-81
2022/06/23 01:15:54;;;;;;;5.50;2.63;;;20.40;58.40;;;;;;5032311;28;20532;-81
2022/06/23 01:18:25;;;;;;;4.37;2.30;;;20.30;58.30;;;;;;5028911;28;20460;-81
2022/06/23 01:21:00;;;;;;;4.27;2.40;;;20.20;58.20;;;;;;5032304;28;20450;-81
2022/06/23 01:23:47;;;;;;;4.10;2.60;;;20.20;58.50;;;;;;5030746;28;20428;-81
2022/06/23 01:26:15;;;;;;;2.43;2.13;;;20.20;58.50;;;;;;5030451;28;20996;-81
2022/06/23 01:28:42;;;;;;;4.10;2.63;;;20.20;59.10;;;;;;5028872;28;20486;-81
2022/06/23 01:31:25;;;;;;;5.57;2.60;;;20.20;78.00;;;;;;5028724;28;20525;-82
2022/06/23 01:33:56;;;;;;;3.10;2.53;;;20.10;60.00;;;;;;5027232;28;20438;-81
2022/06/23 01:36:40;;;;;;;4.73;2.60;;;20.10;61.00;;;;;;5030447;28;20457;-82
2022/06/23 01:39:13;;;;;;;3.07;2.60;;;20.00;60.70;;;;;;5032582;28;20515;-82
2022/06/23 01:41:52;;;;;;;2.70;2.13;;;20.00;62.20;;;;;;5033234;28;20496;-81
2022/06/23 01:44:46;;;;;;;3.97;2.73;;;20.00;62.20;;;;;;5029349;28;20999;-82
2022/06/23 01:47:34;;;;;;;2.50;2.30;;;20.00;63.10;;;;;;5029432;28;20486;-81
2022/06/23 01:50:35;;;;;;;4.43;2.53;;;20.00;64.40;;;;;;5025621;28;20478;-81
2022/06/23 01:53:16;;;;;;;2.97;2.67;;;20.00;65.20;;;;;;5029572;28;20464;-82
2022/06/23 01:56:04;;;;;;;3.20;2.40;;;20.00;66.60;;;;;;5024715;28;20445;-81
2022/06/23 01:58:55;;;;;;;4.73;2.83;;;19.90;67.20;;;;;;5024238;28;20465;-82
2022/06/23 02:01:32;;;;;;;3.83;2.87;;;19.90;68.90;;;;;;5030748;28;20437;-82
2022/06/23 02:04:10;;;;;;;4.63;3.20;;;19.80;68.00;;;;;;5026140;28;20439;-81
2022/06/23 02:06:54;;;;;;;3.97;2.53;;;19.70;68.50;;;;;;5031353;28;20769;-81
2022/06/23 02:09:31;;;;;;;5.00;2.50;;;19.70;70.60;;;;;;5023982;28;20436;-81
2022/06/23 02:11:57;;;;;;;4.57;2.47;;;19.70;71.10;;;;;;5030103;28;20568;-82
2022/06/23 02:14:50;;;;;;;8.00;2.70;;;19.60;72.00;;;;;;5023873;28;20454;-82
2022/06/23 02:17:27;;;;;;;4.80;2.77;;;19.60;71.80;;;;;;5027519;28;20449;-82
2022/06/23 02:19:56;;;;;;;8.97;2.87;;;19.70;74.10;;;;;;5028134;28;20484;-82
2022/06/23 02:22:36;;;;;;;3.53;2.60;;;19.70;74.70;;;;;;5023357;28;20434;-81
2022/06/23 02:25:15;;;;;;;8.57;3.30;;;19.70;75.70;;;;;;5024548;28;20437;-81
2022/06/23 02:27:49;;;;;;;6.73;3.13;;;19.70;77.30;;;;;;5041952;28;20464;-81
2022/06/23 02:30:35;;;;;;;16.93;3.10;;;19.70;77.40;;;;;;5027395;28;20932;-81
2022/06/23 02:33:04;;;;;;;7.07;3.53;;;19.70;77.80;;;;;;5029314;28;20445;-80
2022/06/23 02:35:43;;;;;;;8.73;3.17;;;19.70;78.80;;;;;;5027048;28;20466;-82
2022/06/23 02:38:30;;;;;;;4.83;2.80;;;19.70;79.40;;;;;;5027507;28;20456;-81
2022/06/23 02:40:56;;;;;;;6.40;2.73;;;19.70;81.50;;;;;;5032236;28;20442;-81
2022/06/23 02:43:25;;;;;;;15.13;3.67;;;19.60;81.10;;;;;;5027841;28;20462;-82
2022/06/23 02:46:15;;;;;;;9.00;3.47;;;19.60;80.50;;;;;;5031423;28;20194;-81
2022/06/23 02:49:21;;;;;;;9.63;3.77;;;19.50;81.60;;;;;;5028520;28;20484;-81
2022/06/23 02:51:57;;;;;;;13.43;4.60;;;19.50;82.70;;;;;;5029655;28;20440;-80
2022/06/23 02:54:57;;;;;;;19.00;3.80;;;19.50;83.50;;;;;;5027869;28;20532;-80
2022/06/23 02:57:40;;;;;;;16.40;5.20;;;19.40;85.90;;;;;;5027439;28;20457;-81
2022/06/23 03:00:33;;;;;;;9.83;3.97;;;19.30;86.70;;;;;;5047184;28;20448;-81
2022/06/23 03:03:15;;;;;;;13.87;3.67;;;19.30;88.50;;;;;;5029884;28;20441;-81
2022/06/23 03:05:47;;;;;;;9.50;3.80;;;19.30;90.20;;;;;;5029688;28;20954;-81
2022/06/23 03:08:35;;;;;;;13.10;4.17;;;19.30;92.50;;;;;;5023842;28;20488;-81
2022/06/23 03:11:16;;;;;;;11.67;3.97;;;19.30;93.60;;;;;;5031648;28;20437;-82
2022/06/23 03:13:51;;;;;;;7.43;3.80;;;19.30;95.40;;;;;;5025956;28;21004;-82
2022/06/23 03:16:25;;;;;;;13.30;3.90;;;19.30;96.00;;;;;;5026391;28;20990;-82
2022/06/23 03:19:02;;;;;;;10.73;4.20;;;19.30;96.70;;;;;;5026792;28;20478;-81
2022/06/23 03:21:41;;;;;;;10.13;3.93;;;19.30;99.50;;;;;;5029424;28;20439;-81
2022/06/23 03:24:25;;;;;;;9.63;4.40;;;19.20;99.90;;;;;;5028180;28;20436;-81
2022/06/23 03:26:58;;;;;;;9.60;4.90;;;19.30;99.90;;;;;;5028808;28;21229;-81
2022/06/23 03:29:36;;;;;;;10.03;5.30;;;19.30;99.90;;;;;;5026303;28;20858;-82
2022/06/23 03:32:35;;;;;;;8.10;4.70;;;19.30;99.90;;;;;;5027233;28;20448;-81
2022/06/23 03:35:22;;;;;;;11.73;4.63;;;19.30;99.90;;;;;;5034485;28;20434;-80
2022/06/23 03:38:11;;;;;;;13.83;5.37;;;19.20;99.90;;;;;;5031958;28;20987;-81
2022/06/23 03:43:43;;;;;;;11.10;5.27;;;19.10;99.90;;;;;;5030428;28;20510;-80
2022/06/23 03:46:25;;;;;;;7.10;4.90;;;19.10;99.90;;;;;;5029948;28;20443;-82
2022/06/23 03:48:56;;;;;;;7.03;5.90;;;19.10;99.90;;;;;;5044517;28;20591;-82
2022/06/23 03:51:28;;;;;;;12.80;6.77;;;19.10;99.90;;;;;;5046948;28;20501;-82
2022/06/23 03:53:56;;;;;;;6.33;5.37;;;19.10;99.90;;;;;;5031903;28;20496;-82
2022/06/23 03:56:25;;;;;;;13.77;5.60;;;19.10;99.90;;;;;;5038241;28;20429;-82
2022/06/23 03:59:19;;;;;;;7.30;5.60;;;19.10;99.90;;;;;;5039204;28;20491;-81
2022/06/23 04:01:55;;;;;;;6.17;5.67;;;19.20;99.90;;;;;;5033201;28;20497;-81
2022/06/23 04:04:46;;;;;;;7.97;5.60;;;19.30;99.90;;;;;;5024034;28;20551;-81
2022/06/23 04:07:46;;;;;;;10.40;6.43;;;19.30;99.90;;;;;;5031292;28;20471;-81
2022/06/23 04:10:18;;;;;;;10.00;5.93;;;19.40;99.90;;;;;;5019599;28;20515;-82
2022/06/23 04:12:48;;;;;;;9.33;6.60;;;19.50;99.90;;;;;;5024829;28;20429;-82
2022/06/23 04:15:22;;;;;;;16.40;6.10;;;19.60;99.90;;;;;;5034335;28;20420;-81
2022/06/23 04:17:54;;;;;;;12.20;5.60;;;19.60;99.90;;;;;;5032003;28;20960;-81
2022/06/23 04:20:40;;;;;;;10.63;7.03;;;19.70;99.90;;;;;;5031879;28;20443;-81
2022/06/23 04:23:16;;;;;;;12.90;6.30;;;19.80;99.90;;;;;;5029922;28;20433;-81
2022/06/23 04:25:51;;;;;;;6.40;5.57;;;20.00;99.90;;;;;;5031933;28;20446;-82
2022/06/23 04:28:37;;;;;;;6.73;6.03;;;20.10;99.90;;;;;;5031415;28;20465;-81
2022/06/23 04:31:06;;;;;;;7.30;5.70;;;20.20;99.90;;;;;;5033468;28;20865;-80
2022/06/23 04:33:37;;;;;;;9.10;6.17;;;20.20;99.90;;;;;;5030616;28;20444;-82
2022/06/23 04:36:03;;;;;;;7.27;6.20;;;20.20;99.90;;;;;;5051680;28;20962;-80
2022/06/23 04:38:45;;;;;;;8.93;6.70;;;20.30;99.90;;;;;;5029103;28;20494;-81
2022/06/23 04:41:33;;;;;;;8.60;6.10;;;20.40;99.90;;;;;;5025621;28;20429;-82
2022/06/23 04:44:03;;;;;;;10.77;6.40;;;20.50;99.90;;;;;;5028963;28;20424;-81
2022/06/23 04:46:40;;;;;;;8.03;6.00;;;20.50;99.90;;;;;;5022736;28;20587;-82
2022/06/23 04:49:26;;;;;;;8.57;6.30;;;20.40;99.90;;;;;;5031922;28;20485;-80
2022/06/23 04:51:58;;;;;;;7.17;6.27;;;20.50;99.90;;;;;;5022098;28;20463;-81
2022/06/23 04:54:32;;;;;;;8.17;7.07;;;20.60;99.90;;;;;;5032280;28;20454;-82
2022/06/23 04:57:20;;;;;;;7.60;6.20;;;20.70;99.90;;;;;;5028646;28;20442;-81
2022/06/23 04:59:54;;;;;;;7.07;6.37;;;20.80;1.00;;;;;;5031574;28;20914;-81
2022/06/23 05:02:41;;;;;;;8.27;6.00;;;20.90;1.00;;;;;;5031830;28;20439;-81
2022/06/23 05:05:17;;;;;;;7.50;6.13;;;21.10;99.90;;;;;;5033164;28;20423;-81
2022/06/23 05:07:58;;;;;;;10.40;6.00;;;21.30;99.90;;;;;;5028312;28;20508;-81
2022/06/23 05:10:28;;;;;;;9.00;6.40;;;21.40;99.90;;;;;;5028838;28;20542;-82
2022/06/23 05:13:13;;;;;;;9.53;6.93;;;21.50;99.90;;;;;;5029589;28;20522;-82
2022/06/23 05:16:05;;;;;;;9.30;6.67;;;21.70;99.90;;;;;;5029522;28;20438;-82
2022/06/23 05:18:38;;;;;;;13.83;6.63;;;21.90;99.90;;;;;;5022649;28;20459;-83
2022/06/23 05:21:36;;;;;;;13.00;6.67;;;22.00;99.90;;;;;;5032268;28;20510;-81
2022/06/23 05:24:12;;;;;;;13.63;6.37;;;22.20;99.90;;;;;;5030694;28;20507;-82
2022/06/23 05:26:59;;;;;;;12.10;6.73;;;22.40;99.90;;;;;;5023498;28;20437;-82
2022/06/23 05:29:43;;;;;;;13.63;7.03;;;22.60;99.90;;;;;;5030874;28;20431;-82
2022/06/23 05:32:27;;;;;;;12.27;6.20;;;22.70;99.90;;;;;;5026149;28;20952;-81
2022/06/23 05:35:14;;;;;;;8.13;6.50;;;23.00;99.90;;;;;;5033898;28;20429;-81
2022/06/23 05:37:51;;;;;;;10.73;6.63;;;23.00;99.90;;;;;;5029764;28;20459;-82
2022/06/23 05:40:38;;;;;;;9.50;6.37;;;23.00;99.90;;;;;;5027057;28;20425;-81
2022/06/23 05:43:04;;;;;;;10.30;6.80;;;23.10;99.90;;;;;;5030611;28;20439;-81
2022/06/23 05:45:46;;;;;;;8.33;7.00;;;23.20;99.90;;;;;;5030190;28;20502;-80
2022/06/23 05:48:17;;;;;;;6.70;5.67;;;23.20;99.90;;;;;;5023916;28;20516;-82
2022/06/23 05:50:48;;;;;;;10.10;6.40;;;23.40;99.90;;;;;;5031106;28;20462;-81
2022/06/23 05:53:20;;;;;;;11.47;6.63;;;23.40;99.90;;;;;;5032678;28;20434;-80
2022/06/23 05:55:54;;;;;;;7.70;6.80;;;23.50;99.90;;;;;;5029562;28;20431;-80
2022/06/23 05:58:46;;;;;;;9.33;6.87;;;23.70;99.90;;;;;;5027991;28;20488;-79
2022/06/23 06:01:21;;;;;;;8.10;6.53;;;24.00;99.90;;;;;;5025734;28;20429;-81
2022/06/23 06:03:56;;;;;;;7.43;6.60;;;24.00;99.90;;;;;;5026696;28;20447;-80
2022/06/23 06:06:21;;;;;;;7.40;6.73;;;24.10;99.90;;;;;;5030211;28;20411;-82
2022/06/23 06:11:46;;;;;;;9.50;7.10;;;24.40;99.90;;;;;;5035360;28;20419;-80
2022/06/23 06:14:17;;;;;;;12.20;7.07;;;24.90;99.90;;;;;;5017720;28;20507;-80
2022/06/23 06:16:43;;;;;;;9.30;6.20;;;25.60;99.90;;;;;;5026332;28;20507;-81
2022/06/23 06:19:21;;;;;;;7.00;5.37;;;27.50;99.90;;;;;;5023265;28;20450;-79
2022/06/23 06:21:48;;;;;;;9.20;4.73;;;31.30;99.90;;;;;;5022649;28;20188;-80
2022/06/23 06:24:29;;;;;;;8.13;5.30;;;35.10;99.90;;;;;;5029063;28;20429;-80
2022/06/23 06:26:55;;;;;;;6.20;4.40;;;37.90;99.90;;;;;;5034592;28;20439;-80
2022/06/23 06:29:24;;;;;;;5.60;4.50;;;39.70;99.90;;;;;;5035440;28;20475;-81
2022/06/23 06:32:29;;;;;;;7.40;4.60;;;40.80;99.90;;;;;;5036460;28;20475;-80
2022/06/23 06:35:20;;;;;;;6.23;3.87;;;43.50;99.90;;;;;;5033467;28;20425;-81
2022/06/23 06:37:59;;;;;;;6.43;4.20;;;44.70;99.90;;;;;;5022138;28;20475;-81
2022/06/23 06:40:25;;;;;;;5.17;3.43;;;46.20;99.90;;;;;;5030235;28;20416;-81
2022/06/23 06:42:56;;;;;;;7.53;3.90;;;46.50;99.90;;;;;;5015529;28;20444;-80
2022/06/23 06:45:26;;;;;;;6.80;3.20;;;46.60;99.90;;;;;;5030585;28;20466;-81
2022/06/23 06:47:52;;;;;;;6.97;3.50;;;47.90;99.90;;;;;;5023236;28;20494;-81
2022/06/23 06:50:17;;;;;;;9.10;4.10;;;48.20;99.90;;;;;;5033553;28;20424;-80
2022/06/23 06:52:44;;;;;;;5.70;3.70;;;48.40;99.90;;;;;;5032100;28;20173;-81
2022/06/23 06:55:32;;;;;;;8.43;3.47;;;49.30;97.90;;;;;;5033724;28;20177;-81
2022/06/23 06:58:08;;;;;;;11.53;4.10;;;50.10;95.30;;;;;;5034391;28;20468;-81
2022/06/23 07:00:46;;;;;;;11.43;3.70;;;50.50;92.40;;;;;;5033918;28;20446;-81
2022/06/23 07:03:16;;;;;;;9.10;3.80;;;52.10;91.50;;;;;;5033547;28;20276;-81
2022/06/23 07:05:52;;;;;;;8.00;3.10;;;53.20;89.80;;;;;;5028010;28;20180;-81
2022/06/23 07:08:46;;;;;;;8.65;3.58;;;54.50;86.70;;;;;;5025278;28;20319;-81
2022/06/23 07:11:41;;;;;;;6.40;3.45;;;55.90;82.40;;;;;;5027737;28;20197;-82
2022/06/23 07:14:11;;;;;;;10.63;2.80;;;55.80;75.60;;;;;;5038693;28;20203;-81
2022/06/23 07:16:36;;;;;;;4.50;2.55;;;58.00;77.30;;;;;;5035470;28;20709;-81
2022/06/23 07:19:24;;;;;;;6.75;3.22;;;58.60;74.00;;;;;;5037058;28;20224;-82
2022/06/23 07:22:03;;;;;;;7.50;2.85;;;58.00;66.30;;;;;;5027804;28;20212;-82
2022/06/23 07:25:02;;;;;;;7.40;3.20;;;58.50;62.50;;;;;;5032912;28;20209;-81
2022/06/23 07:27:47;;;;;;;5.82;2.60;;;59.00;59.50;;;;;;5032758;28;20209;-81
2022/06/23 07:30:21;;;;;;;5.50;2.60;;;59.10;56.60;;;;;;5036402;28;20170;-82
2022/06/23 07:33:08;;;;;;;9.15;2.80;;;58.80;53.20;;;;;;5020806;28;20191;-82
2022/06/23 07:35:49;;;;;;;6.55;2.25;;;58.40;51.60;;;;;;5037676;28;20252;-79
2022/06/23 07:38:30;;;;;;;8.65;2.70;;;58.40;50.00;;;;;;5027971;28;20197;-80
2022/06/23 07:41:10;;;;;;;10.05;2.83;;;58.90;49.20;;;;;;5028706;28;20718;-80
2022/06/23 07:44:08;;;;;;;9.93;3.80;;;59.10;48.00;;;;;;5036060;28;20570;-81
2022/06/23 07:46:37;;;;;;;6.45;2.95;;;58.90;46.70;;;;;;5032900;28;20192;-80
2022/06/23 07:49:03;;;;;;;5.15;3.08;;;59.90;48.30;;;;;;5034680;28;20634;-81
2022/06/23 07:51:28;;;;;;;5.43;3.10;;;60.60;49.40;;;;;;5031016;28;20173;-81
2022/06/23 07:53:56;;;;;;;6.28;2.75;;;60.20;47.20;;;;;;5036472;28;20237;-80
2022/06/23 07:56:25;;;;;;;5.35;2.88;;;59.80;44.80;;;;;;5036823;28;20189;-79
2022/06/23 07:58:54;;;;;;;11.68;3.03;;;58.20;40.30;;;;;;5031749;28;20692;-79
2022/06/23 08:01:34;;;;;;;8.57;3.63;;;56.40;35.30;;;;;;5024651;28;20229;-79
2022/06/23 08:04:08;;;;;;;6.82;3.20;;;55.20;32.90;;;;;;5036630;28;20284;-79
2022/06/23 08:06:35;;;;;;;6.90;2.83;;;54.80;33.50;;;;;;5022096;28;20185;-80
2022/06/23 08:09:07;;;;;;;9.25;2.88;;;54.40;32.60;;;;;;5019953;28;20214;-80
2022/06/23 08:14:29;;;;;;;6.13;2.80;;;53.80;31.80;;;;;;5029931;28;20185;-80
2022/06/23 08:16:54;;;;;;;11.10;3.70;;;53.00;30.70;;;;;;5031295;28;20815;-80
2022/06/23 08:19:38;;;;;;;7.50;2.70;;;53.60;33.50;;;;;;5024530;28;20270;-80
2022/06/23 08:22:11;;;;;;;8.20;3.47;;;53.70;33.60;;;;;;5034455;28;20182;-81
2022/06/23 08:24:38;;;;;;;6.50;3.30;;;53.20;32.40;;;;;;5029647;28;20665;-80
2022/06/23 08:27:09;;;;;;;16.30;3.23;;;52.40;30.10;;;;;;5027974;28;20178;-80
2022/06/23 08:29:42;;;;;;;12.97;3.40;;;51.30;29.30;;;;;;5029382;28;20432;-80
2022/06/23 08:32:09;;;;;;;10.30;4.30;;;51.90;31.50;;;;;;5033674;28;20803;-80
2022/06/23 08:34:37;;;;;;;10.23;3.80;;;51.50;31.20;;;;;;5029169;28;20845;-79
2022/06/23 08:37:15;;;;;;;6.77;3.40;;;51.20;31.40;;;;;;5025529;28;20420;-80
2022/06/23 08:40:01;;;;;;;12.77;4.10;;;51.00;30.40;;;;;;5017639;28;20437;-80
2022/06/23 08:42:43;;;;;;;6.97;3.00;;;51.00;31.30;;;;;;5025743;28;20401;-79
2022/06/23 08:45:51;;;;;;;6.73;3.03;;;50.90;32.00;;;;;;5017868;28;20390;-79
2022/06/23 08:48:38;;;;;;;13.37;3.67;;;51.30;32.50;;;;;;5013097;28;20906;-80
2022/06/23 08:51:29;;;;;;;8.90;3.10;;;51.40;32.80;;;;;;5027268;28;20424;-79
2022/06/23 08:54:20;;;;;;;12.50;2.77;;;52.10;34.00;;;;;;5017440;28;20475;-79
2022/06/23 08:57:11;;;;;;;6.13;2.80;;;51.70;32.80;;;;;;5021547;28;20408;-80
2022/06/23 08:59:50;;;;;;;5.07;2.60;;;51.20;44.40;;;;;;5029121;28;20955;-79
2022/06/23 09:02:51;;;;;;;7.87;3.50;;;51.00;31.40;;;;;;5045830;28;20493;-78
2022/06/23 09:05:49;;;;;;;7.80;2.70;;;50.90;31.50;;;;;;5010243;28;20919;-79
2022/06/23 09:08:30;;;;;;;10.93;3.20;;;50.80;30.50;;;;;;5025118;28;20498;-79
2022/06/23 09:11:09;;;;;;;7.67;3.60;;;50.10;29.70;;;;;;5033872;28;20432;-79
2022/06/23 09:13:59;;;;;;;10.87;2.73;;;50.30;30.00;;;;;;5021599;28;20409;-80
2022/06/23 09:16:43;;;;;;;6.83;2.73;;;50.80;31.20;;;;;;5022921;28;20455;-79
2022/06/23 09:19:45;;;;;;;8.23;2.93;;;50.00;31.10;;;;;;5033219;28;20448;-79
2022/06/23 09:22:40;;;;;;;10.40;2.50;;;50.60;31.70;;;;;;5043684;28;20519;-79
2022/06/23 09:25:20;;;;;;;11.37;3.10;;;51.40;33.50;;;;;;5035011;28;20412;-80
2022/06/23 09:28:13;;;;;;;7.07;2.90;;;51.50;33.60;;;;;;5035858;28;20464;-80
2022/06/23 09:31:00;;;;;;;6.60;2.77;;;51.60;34.00;;;;;;5036436;28;20799;-79
2022/06/23 09:33:50;;;;;;;7.27;3.40;;;51.50;33.60;;;;;;5035899;28;20400;-79
2022/06/23 09:36:19;;;;;;;8.50;2.60;;;51.50;32.90;;;;;;5034837;28;20431;-79
2022/06/23 09:39:15;;;;;;;6.13;2.80;;;51.60;33.20;;;;;;5034733;28;20440;-79
2022/06/23 09:41:52;;;;;;;7.10;3.07;;;50.20;29.20;;;;;;5027066;28;20825;-79
2022/06/23 09:44:50;;;;;;;9.30;3.10;;;48.60;27.60;;;;;;5035311;28;20413;-79
2022/06/23 09:47:43;;;;;;;5.00;3.30;;;49.20;29.80;;;;;;5022951;28;20470;-79
2022/06/23 09:50:51;;;;;;;7.10;2.80;;;50.30;33.00;;;;;;5034909;28;20786;-79
2022/06/23 09:53:46;;;;;;;5.43;2.80;;;51.60;36.00;;;;;;5022955;28;20606;-79
2022/06/23 09:56:33;;;;;;;11.10;3.10;;;52.10;36.20;;;;;;5034489;28;20463;-79
2022/06/23 09:59:34;;;;;;;10.50;3.40;;;51.20;33.00;;;;;;5034273;28;20431;-79
2022/06/23 10:02:19;;;;;;;6.93;2.87;;;49.40;29.40;;;;;;5032777;28;20437;-79
2022/06/23 10:05:16;;;;;;;6.40;2.93;;;48.80;29.30;;;;;;5022364;28;20476;-79
2022/06/23 10:08:18;;;;;;;7.47;3.20;;;48.80;29.90;;;;;;5014104;28;20461;-80
2022/06/23 10:11:01;;;;;;;10.07;3.10;;;48.10;29.70;;;;;;5029678;28;20428;-80
2022/06/23 10:13:47;;;;;;;7.93;2.70;;;48.10;30.00;;;;;;5023660;28;20511;-80
2022/06/23 10:16:47;;;;;;;9.33;3.40;;;48.10;30.60;;;;;;5023669;28;20518;-79
2022/06/23 10:19:32;;;;;;;7.27;2.90;;;48.30;31.00;;;;;;5031685;28;20432;-79
2022/06/23 10:22:30;;;;;;;9.13;3.17;;;48.80;32.90;;;;;;5033137;28;20475;-79
2022/06/23 10:25:19;;;;;;;8.87;2.80;;;48.30;31.00;;;;;;5033834;28;20781;-80
2022/06/23 10:28:28;;;;;;;6.20;2.63;;;48.30;31.50;;;;;;5027224;28;20460;-79
2022/06/23 10:31:15;;;;;;;5.50;2.63;;;49.30;34.40;;;;;;5024856;28;21006;-80
2022/06/23 10:34:17;;;;;;;8.23;3.33;;;49.60;34.30;;;;;;5024867;28;20453;-79
2022/06/23 10:37:07;;;;;;;9.30;3.50;;;48.50;31.80;;;;;;5032004;28;20772;-79
2022/06/23 10:39:59;;;;;;;9.47;3.00;;;49.20;33.80;;;;;;5025953;28;20481;-79
2022/06/23 10:43:05;;;;;;;9.03;3.23;;;48.60;31.70;;;;;;5025197;28;20401;-80
2022/06/23 10:45:43;;;;;;;7.23;3.07;;;48.60;32.10;;;;;;5029193;28;20407;-79
2022/06/23 10:48:33;;;;;;;7.10;3.40;;;48.80;33.30;;;;;;5031029;28;20533;-78
2022/06/23 10:51:11;;;;;;;7.80;2.80;;;47.80;31.20;;;;;;5026863;28;20444;-79
2022/06/23 10:53:51;;;;;;;8.43;3.00;;;47.50;31.20;;;;;;5024512;28;20510;-79
2022/06/23 10:56:22;;;;;;;10.53;3.13;;;48.30;33.30;;;;;;5013751;28;20425;-79
2022/06/23 10:58:59;;;;;;;8.97;3.27;;;47.50;31.00;;;;;;5027306;28;20460;-79
2022/06/23 11:01:43;;;;;;;14.73;3.30;;;47.20;30.30;;;;;;5031540;28;20806;-78
2022/06/23 11:04:12;;;;;;;6.27;3.10;;;47.50;31.90;;;;;;5032036;28;20482;-79
2022/06/23 11:07:14;;;;;;;8.93;3.40;;;47.30;31.90;;;;;;5030608;28;20443;-79
2022/06/23 11:09:48;;;;;;;9.93;3.67;;;46.90;30.90;;;;;;5028697;28;20452;-78
2022/06/23 11:12:22;;;;;;;14.43;3.20;;;47.50;33.10;;;;;;5022860;28;20434;-78
2022/06/23 11:15:09;;;;;;;8.77;3.57;;;47.50;32.50;;;;;;5030740;28;20883;-79
2022/06/23 11:17:57;;;;;;;9.43;3.37;;;47.50;32.10;;;;;;5021495;28;20909;-78
2022/06/23 11:20:35;;;;;;;7.57;3.10;;;47.50;32.90;;;;;;5030063;28;20419;-80
2022/06/23 11:23:16;;;;;;;6.23;3.10;;;46.90;32.10;;;;;;5015304;28;20425;-79
2022/06/23 11:25:49;;;;;;;6.60;3.10;;;47.10;32.40;;;;;;5013995;28;20425;-80
2022/06/23 11:28:24;;;;;;;10.20;3.13;;;46.90;32.70;;;;;;5025453;28;21090;-79
2022/06/23 11:31:14;;;;;;;5.83;2.50;;;47.00;33.10;;;;;;5029017;28;20430;-79
2022/06/23 11:33:59;;;;;;;7.93;3.30;;;46.70;31.60;;;;;;5018790;28;20432;-79
2022/06/23 11:36:47;;;;;;;9.30;2.97;;;47.30;32.90;;;;;;5029548;28;20429;-78
2022/06/23 11:39:19;;;;;;;5.77;2.37;;;46.60;32.30;;;;;;5022004;28;20460;-80
2022/06/23 11:42:08;;;;;;;6.93;3.10;;;46.70;32.80;;;;;;5031255;28;21039;-79
2022/06/23 11:44:42;;;;;;;8.90;3.10;;;46.60;32.60;;;;;;5031791;28;20471;-79
2022/06/23 11:47:17;;;;;;;5.57;2.87;;;46.40;32.40;;;;;;5031176;28;20428;-79
2022/06/23 11:49:51;;;;;;;9.97;2.70;;;46.60;32.80;;;;;;5014313;28;21024;-79
2022/06/23 11:52:16;;;;;;;11.87;3.50;;;44.90;29.10;;;;;;5031727;28;20393;-78
2022/06/23 11:55:24;;;;;;;10.60;3.10;;;45.00;30.00;;;;;;5022897;28;20464;-78
2022/06/23 11:57:49;;;;;;;10.97;3.00;;;44.70;30.40;;;;;;5027462;28;20194;-79
2022/06/23 12:00:18;;;;;;;10.50;4.00;;;43.40;28.00;;;;;;5034605;28;20417;-78
2022/06/23 12:03:14;;;;;;;5.50;2.50;;;42.90;27.90;;;;;;5034457;28;20186;-78
2022/06/23 12:05:53;;;;;;;6.60;3.20;;;42.40;28.90;;;;;;5030014;28;20496;-78
2022/06/23 12:08:23;;;;;;;7.43;3.30;;;41.00;27.60;;;;;;5021503;28;20529;-78
2022/06/23 12:10:48;;;;;;;8.83;3.37;;;41.70;31.40;;;;;;5026103;28;20440;-78
2022/06/23 12:13:14;;;;;;;7.60;3.20;;;41.10;31.20;;;;;;5026167;28;20438;-79
2022/06/23 12:15:44;;;;;;;9.73;3.27;;;41.70;32.80;;;;;;5021566;28;20179;-78
2022/06/23 12:18:19;;;;;;;11.00;3.00;;;42.70;37.20;;;;;;5025509;28;20264;-79
2022/06/23 12:21:06;;;;;;;12.60;3.40;;;43.10;38.30;;;;;;5029369;28;20493;-79
2022/06/23 12:23:46;;;;;;;8.90;2.80;;;43.60;39.00;;;;;;5022514;28;20544;-78
2022/06/23 12:26:14;;;;;;;11.60;3.33;;;44.10;40.20;;;;;;5026891;28;20443;-79
2022/06/23 12:29:21;;;;;;;8.40;2.93;;;44.20;39.80;;;;;;5021509;28;20520;-79
2022/06/23 12:31:49;;;;;;;10.93;3.50;;;43.60;37.20;;;;;;5027762;28;20925;-79
2022/06/23 12:34:38;;;;;;;8.93;3.20;;;42.20;33.90;;;;;;5017026;28;20425;-78
2022/06/23 12:37:31;;;;;;;7.40;2.43;;;40.60;30.30;;;;;;5027172;28;20963;-77
2022/06/23 12:40:22;;;;;;;10.00;2.60;;;40.00;31.00;;;;;;5024869;28;20426;-77
2022/06/23 12:42:52;;;;;;;11.37;3.53;;;39.60;32.10;;;;;;5014749;28;20444;-79
2022/06/23 12:45:29;;;;;;;9.97;3.03;;;39.80;34.40;;;;;;5029578;28;20429;-79
2022/06/23 12:48:06;;;;;;;6.87;2.60;;;40.50;36.50;;;;;;5022619;28;20484;-79
2022/06/23 12:51:07;;;;;;;7.20;2.70;;;41.10;38.50;;;;;;5028236;28;20437;-79
2022/06/23 12:53:48;;;;;;;10.23;3.30;;;41.30;39.70;;;;;;5021265;28;20531;-77
2022/06/23 12:56:13;;;;;;;7.97;2.60;;;41.50;39.30;;;;;;5020691;28;20445;-78
2022/06/23 12:58:44;;;;;;;8.03;3.10;;;42.00;40.60;;;;;;5021993;28;20492;-77
2022/06/23 13:01:38;;;;;;;9.73;2.93;;;41.10;38.00;;;;;;5023061;28;20198;-78
2022/06/23 13:04:41;;;;;;;8.20;2.47;;;40.40;35.70;;;;;;5026094;28;20968;-78
2022/06/23 13:07:22;;;;;;;9.97;2.90;;;40.30;37.20;;;;;;4996619;28;20565;-79
2022/06/23 13:10:26;;;;;;;6.87;2.60;;;40.80;38.20;;;;;;5028376;28;20417;-78
2022/06/23 13:13:10;;;;;;;6.63;2.57;;;41.00;38.90;;;;;;5012662;28;20792;-78
2022/06/23 13:15:49;;;;;;;5.80;2.53;;;41.40;38.90;;;;;;5028522;28;20934;-79
2022/06/23 13:18:31;;;;;;;5.93;2.70;;;41.20;38.10;;;;;;5022462;28;20449;-78
2022/06/23 13:21:21;;;;;;;6.80;2.33;;;41.70;38.40;;;;;;5029704;28;20951;-78
2022/06/23 13:23:51;;;;;;;3.67;2.10;;;42.30;52.50;;;;;;5024333;28;20458;-78
2022/06/23 13:26:21;;;;;;;9.77;2.97;;;42.50;38.90;;;;;;5027861;28;20463;-78
2022/06/23 13:28:53;;;;;;;7.47;3.20;;;42.60;38.90;;;;;;5025145;28;20515;-77
2022/06/23 13:31:25;;;;;;;5.83;2.67;;;42.70;38.00;;;;;;5026341;28;20934;-78
2022/06/23 13:34:11;;;;;;;11.80;2.73;;;42.70;36.80;;;;;;5025106;28;20506;-78
2022/06/23 13:36:46;;;;;;;10.70;3.00;;;42.60;36.00;;;;;;5023994;28;20431;-79
2022/06/23 13:39:31;;;;;;;4.80;2.80;;;42.40;34.90;;;;;;5025226;28;20484;-78
2022/06/23 13:42:04;;;;;;;8.17;2.60;;;42.40;35.00;;;;;;5024229;28;20439;-78
2022/06/23 13:44:35;;;;;;;10.70;3.07;;;42.50;34.90;;;;;;5028537;28;20448;-78
2022/06/23 13:47:16;;;;;;;4.23;2.33;;;42.60;35.50;;;;;;5025172;28;21229;-77
2022/06/23 13:50:04;;;;;;;9.10;2.73;;;42.50;35.10;;;;;;5029598;28;20432;-79
2022/06/23 13:52:37;;;;;;;8.23;2.50;;;42.30;34.30;;;;;;5022029;28;20436;-78
2022/06/23 13:55:18;;;;;;;8.77;2.37;;;41.90;33.60;;;;;;5029219;28;20768;-78
2022/06/23 13:57:53;;;;;;;6.43;2.63;;;41.70;33.20;;;;;;5017385;28;21017;-80
2022/06/23 14:00:32;;;;;;;8.67;2.43;;;40.90;30.50;;;;;;5028962;28;20412;-77